Estación Meteorológica Peña el Pijo (Robertgarden) [ 02/03/23 02:38:13 CET ]

Fecha Hora Presion(HPa) Temp (°C) Humedad % Rocio (°C) Viento ( m/s) Direccion Lluvia 1Hora(mm) Lluvia 24H(mm) LLuvia Total(mm)
2012-Dec-04 01:01:11 1015.200 0.4 80 -2.6         178.19
2012-Dec-04 02:03:14 1014.800 2.1 78 -1.4         178.19
2012-Dec-04 03:01:15 1014.300 0.3 77 -3.3         178.19
2012-Dec-04 04:01:16 1014.300 1.8 81 -1.1         178.19
2012-Dec-04 05:01:13 1013.400 2.5 71 -2.2 1.1 SSW     178.19
2012-Dec-04 06:01:13 1012.900 4.2 58 -3.4 1.2 E     178.19
2012-Dec-04 07:01:12 1012.900 4.4 61 -2.5 2.5 SSW     178.19
2012-Dec-04 08:01:14 1012.700 4.3 65 -1.8 0.3 S     178.19
2012-Dec-04 09:01:16 1013.000 4.4 70 -0.6         178.19
2012-Dec-04 10:01:16 1013.600 5.3 67 -0.3         178.19
2012-Dec-04 11:01:11 1013.400 5.3 68 -0.1         178.19
2012-Dec-04 12:01:16 1013.200 7.8 63 1.2         178.19
2012-Dec-04 13:01:15 1012.800 9.2 58 1.4 2.0 ESE     178.19
2012-Dec-04 14:01:15 1012.500 8.9 62 2.0         178.19
2012-Dec-04 15:01:18 1012.300 7.8 66 1.8 1.7 SE     178.19
2012-Dec-04 16:01:11 1012.300 6.1 75 2.0 1.4 S     178.19
2012-Dec-04 17:01:20 1012.000 5.2 79 1.8         178.19
2012-Dec-04 18:01:13 1012.000 4.4 84 1.9         178.19
2012-Dec-04 19:01:13 1012.100 4.3 86 2.1         178.19
2012-Dec-04 20:01:17 1012.100 4.7 86 2.5         178.19
2012-Dec-04 21:01:18 1011.100 4.9 82 2.0         178.19
2012-Dec-04 22:01:13 1011.400 5.2 79 1.8         178.19
2012-Dec-04 23:01:13 1010.900 5.2 76 1.3         178.19

Temperatura Máxima:    Temperatura Mínima:
Presión Máxima:1015.200 Hpa    Presión Mínima:1010.900 Hpa


Volver